createdAt,value
2022-08-09T00:00:00.274Z,23.66
2022-08-09T00:02:31.148Z,23.78
2022-08-09T00:05:03.153Z,23.84
2022-08-09T00:07:45.306Z,23.55
2022-08-09T00:10:11.873Z,23.79
2022-08-09T00:12:47.378Z,23.56
2022-08-09T00:15:19.429Z,23.92
2022-08-09T00:18:07.477Z,23.83
2022-08-09T00:20:32.237Z,23.96
2022-08-09T00:23:53.773Z,24.03
2022-08-09T00:25:46.977Z,24.03
2022-08-09T00:28:18.322Z,23.37
2022-08-09T00:30:45.141Z,25.37
2022-08-09T00:33:12.237Z,24.46
2022-08-09T00:35:42.960Z,23.90
2022-08-09T00:38:10.125Z,23.67
2022-08-09T00:40:37.944Z,23.74
2022-08-09T00:44:14.738Z,23.68
2022-08-09T00:45:54.163Z,24.01
2022-08-09T00:48:20.724Z,23.99
2022-08-09T00:50:52.274Z,24.09
2022-08-09T00:53:24.419Z,23.80
2022-08-09T00:56:04.512Z,24.11
2022-08-09T00:58:32.360Z,24.08
2022-08-09T01:00:59.525Z,23.85
2022-08-09T01:03:28.500Z,23.58
2022-08-09T01:05:55.076Z,23.46
2022-08-09T01:08:26.695Z,25.35
2022-08-09T01:10:53.494Z,24.51
2022-08-09T01:13:22.333Z,24.24
2022-08-09T01:15:52.013Z,24.06
2022-08-09T01:18:19.052Z,23.71
2022-08-09T01:20:56.451Z,23.66
2022-08-09T01:24:03.530Z,24.01
2022-08-09T01:26:09.292Z,23.88
2022-08-09T01:28:35.673Z,23.97
2022-08-09T01:31:06.118Z,23.78
2022-08-09T01:33:32.894Z,23.82
2022-08-09T01:35:59.327Z,23.98
2022-08-09T01:38:25.736Z,24.18
2022-08-09T01:41:02.918Z,23.85
2022-08-09T01:43:31.894Z,23.81
2022-08-09T01:46:08.750Z,25.46
2022-08-09T01:48:35.792Z,24.38
2022-08-09T01:51:04.490Z,24.02
2022-08-09T01:53:41.083Z,23.75
2022-08-09T01:56:08.208Z,23.92
2022-08-09T01:58:34.717Z,23.71
2022-08-09T02:01:01.213Z,23.86
2022-08-09T02:03:27.631Z,23.81
2022-08-09T02:06:06.349Z,23.99
2022-08-09T02:08:40.276Z,23.89
2022-08-09T02:11:19.803Z,24.25
2022-08-09T02:14:06.756Z,23.89
2022-08-09T02:16:33.725Z,24.04
2022-08-09T02:19:19.052Z,24.11
2022-08-09T02:21:45.526Z,25.63
2022-08-09T02:24:12.970Z,25.30
2022-08-09T02:26:52.993Z,24.45
2022-08-09T02:29:19.378Z,24.30
2022-08-09T02:31:47.349Z,24.30
2022-08-09T02:34:25.686Z,23.97
2022-08-09T02:37:00.204Z,24.10
2022-08-09T02:39:34.180Z,24.04
2022-08-09T02:42:08.316Z,24.01
2022-08-09T02:44:34.829Z,24.03
2022-08-09T02:47:02.374Z,24.14
2022-08-09T02:49:38.839Z,24.47
2022-08-09T02:52:08.050Z,24.47
2022-08-09T02:54:34.437Z,24.41
2022-08-09T02:57:01.900Z,24.03
2022-08-09T02:59:40.649Z,25.69
2022-08-09T03:02:27.079Z,24.91
2022-08-09T03:04:53.653Z,24.50
2022-08-09T03:07:20.087Z,24.36
2022-08-09T03:09:54.238Z,24.51
2022-08-09T03:12:23.116Z,24.29
2022-08-09T03:14:49.493Z,24.38
2022-08-09T03:17:16.376Z,24.13
2022-08-09T03:19:59.204Z,24.43
2022-08-09T03:22:30.900Z,24.11
2022-08-09T03:25:06.492Z,24.29
2022-08-09T03:27:45.309Z,24.56
2022-08-09T03:30:12.198Z,24.25
2022-08-09T03:32:39.190Z,24.38
2022-08-09T03:35:24.150Z,26.27
2022-08-09T03:37:56.082Z,24.90
2022-08-09T03:40:24.689Z,24.47
2022-08-09T03:42:51.237Z,24.69
2022-08-09T03:45:17.640Z,24.55
2022-08-09T03:48:04.101Z,24.60
2022-08-09T03:50:31.961Z,24.51
2022-08-09T03:52:58.572Z,24.52
2022-08-09T03:55:25.494Z,24.55
2022-08-09T03:58:03.193Z,24.60
2022-08-09T04:00:32.936Z,24.49
2022-08-09T04:02:59.339Z,25.00
2022-08-09T04:05:27.889Z,24.99
2022-08-09T04:07:56.858Z,24.37
2022-08-09T04:10:28.808Z,26.47
2022-08-09T04:12:56.260Z,25.49
2022-08-09T04:15:39.235Z,25.01
2022-08-09T04:18:16.698Z,24.71
2022-08-09T04:20:44.633Z,24.87
2022-08-09T04:23:17.353Z,24.96
2022-08-09T04:25:44.196Z,24.89
2022-08-09T04:28:10.590Z,24.92
2022-08-09T04:30:38.938Z,24.94
2022-08-09T04:33:11.238Z,24.60
2022-08-09T04:35:37.630Z,24.70
2022-08-09T04:38:08.712Z,24.88
2022-08-09T04:40:36.532Z,25.14
2022-08-09T04:43:03.519Z,24.53
2022-08-09T04:45:36.068Z,26.62
2022-08-09T04:48:16.781Z,25.44
2022-08-09T04:50:44.270Z,25.03
2022-08-09T04:53:13.593Z,25.12
2022-08-09T04:55:57.795Z,24.96
2022-08-09T04:58:25.829Z,25.24
2022-08-09T05:00:52.306Z,25.14
2022-08-09T05:03:40.125Z,25.01
2022-08-09T05:06:07.723Z,25.07
2022-08-09T05:08:34.153Z,24.96
2022-08-09T05:11:01.275Z,25.04
2022-08-09T05:13:29.074Z,25.29
2022-08-09T05:15:59.388Z,25.29
2022-08-09T05:18:38.046Z,24.77
2022-08-09T05:21:24.375Z,27.10
2022-08-09T05:23:58.155Z,25.84
2022-08-09T05:26:36.693Z,25.32
2022-08-09T05:29:17.415Z,25.17
2022-08-09T05:31:49.156Z,25.11
2022-08-09T05:34:22.896Z,25.36
2022-08-09T05:36:56.762Z,25.42
2022-08-09T05:39:28.885Z,25.60
2022-08-09T05:41:56.115Z,25.51
2022-08-09T05:44:28.991Z,25.35
2022-08-09T05:46:59.382Z,25.19
2022-08-09T05:50:23.871Z,25.68
2022-08-09T05:52:12.192Z,25.58
2022-08-09T05:54:39.722Z,25.92
2022-08-09T05:57:07.202Z,26.75
2022-08-09T05:59:39.313Z,25.98
2022-08-09T06:02:08.270Z,25.96
2022-08-09T06:04:36.408Z,25.69
2022-08-09T06:07:02.875Z,25.66
2022-08-09T06:09:53.906Z,25.75
2022-08-09T06:12:15.705Z,25.75
2022-08-09T06:14:43.623Z,26.07
2022-08-09T06:17:10.290Z,26.00
2022-08-09T06:19:37.008Z,26.04
2022-08-09T06:22:03.408Z,26.24
2022-08-09T06:24:29.923Z,26.01
2022-08-09T06:26:57.784Z,25.87
2022-08-09T06:29:24.421Z,27.79
2022-08-09T06:32:17.281Z,27.42
2022-08-09T06:34:39.601Z,26.92
2022-08-09T06:37:06.588Z,26.54
2022-08-09T06:39:39.677Z,26.62
2022-08-09T06:42:24.708Z,26.42
2022-08-09T06:44:54.814Z,26.52
2022-08-09T06:47:21.221Z,26.65
2022-08-09T06:50:13.689Z,26.81
2022-08-09T06:52:34.450Z,27.10
2022-08-09T06:55:10.210Z,27.22
2022-08-09T06:58:01.975Z,27.22
2022-08-09T07:00:48.644Z,26.89
2022-08-09T07:03:12.171Z,28.23
2022-08-09T07:05:53.654Z,27.97
2022-08-09T07:08:24.995Z,26.88
2022-08-09T07:10:51.478Z,26.86
2022-08-09T07:13:27.247Z,26.85
2022-08-09T07:16:41.196Z,27.14
2022-08-09T07:18:42.052Z,27.34
2022-08-09T07:21:09.451Z,27.25
2022-08-09T07:23:36.651Z,27.24
2022-08-09T07:26:23.072Z,27.51
2022-08-09T07:29:08.473Z,27.47
2022-08-09T07:31:38.523Z,27.28
2022-08-09T07:34:19.556Z,27.08
2022-08-09T07:36:47.585Z,28.22
2022-08-09T07:39:20.622Z,28.38
2022-08-09T07:42:00.375Z,27.63
2022-08-09T07:44:51.126Z,27.43
2022-08-09T07:47:16.339Z,27.19
2022-08-09T07:49:52.214Z,27.07
2022-08-09T07:52:29.505Z,26.97
2022-08-09T07:54:56.724Z,27.66
2022-08-09T07:57:24.037Z,27.36
2022-08-09T08:00:03.143Z,27.49
2022-08-09T08:02:30.647Z,27.93
2022-08-09T08:04:57.173Z,27.76
2022-08-09T08:08:06.976Z,28.10
2022-08-09T08:10:11.558Z,27.81
2022-08-09T08:12:43.547Z,29.49
2022-08-09T08:15:11.698Z,28.02
2022-08-09T08:17:53.851Z,28.14
2022-08-09T08:20:27.296Z,28.68
2022-08-09T08:23:01.371Z,28.25
2022-08-09T08:25:40.004Z,28.12
2022-08-09T08:28:10.629Z,28.00
2022-08-09T08:30:41.389Z,27.99
2022-08-09T08:33:11.917Z,28.26
2022-08-09T08:35:58.452Z,27.95
2022-08-09T08:38:25.044Z,28.44
2022-08-09T08:40:51.581Z,28.08
2022-08-09T08:43:17.961Z,28.37
2022-08-09T08:45:53.199Z,28.53
2022-08-09T08:48:20.222Z,29.31
2022-08-09T08:50:49.324Z,28.29
2022-08-09T08:53:21.979Z,27.98
2022-08-09T08:55:48.704Z,27.93
2022-08-09T08:58:18.826Z,27.79
2022-08-09T09:00:54.305Z,28.10
2022-08-09T09:03:37.748Z,27.51
2022-08-09T09:06:05.079Z,27.63
2022-08-09T09:08:37.618Z,27.50
2022-08-09T09:11:09.140Z,27.59
2022-08-09T09:13:56.554Z,27.29
2022-08-09T09:16:30.931Z,27.37
2022-08-09T09:19:15.715Z,27.24
2022-08-09T09:21:46.779Z,28.71
2022-08-09T09:24:21.737Z,27.71
2022-08-09T09:26:48.682Z,27.36
2022-08-09T09:29:17.530Z,27.10
2022-08-09T09:32:03.491Z,27.10
2022-08-09T09:34:33.483Z,26.81
2022-08-09T09:37:00.100Z,26.82
2022-08-09T09:39:54.965Z,26.73
2022-08-09T09:42:14.301Z,26.91
2022-08-09T09:44:40.754Z,27.10
2022-08-09T09:47:07.245Z,26.68
2022-08-09T09:50:06.739Z,26.99
2022-08-09T09:52:36.623Z,26.52
2022-08-09T09:55:16.141Z,28.44
2022-08-09T09:58:00.952Z,27.15
2022-08-09T10:00:31.857Z,26.49
2022-08-09T10:03:00.098Z,26.73
2022-08-09T10:06:03.330Z,26.69
2022-08-09T10:08:27.154Z,26.65
2022-08-09T10:10:54.001Z,26.50
2022-08-09T10:13:24.738Z,26.80
2022-08-09T10:16:54.497Z,26.67
2022-08-09T10:18:54.851Z,26.67
2022-08-09T10:21:23.210Z,26.60
2022-08-09T10:23:49.910Z,26.28
2022-08-09T10:26:19.568Z,26.59
2022-08-09T10:28:49.086Z,26.04
2022-08-09T10:34:33.423Z,26.57
2022-08-09T10:37:02.379Z,26.14
2022-08-09T10:39:29.474Z,26.16
2022-08-09T10:41:55.934Z,25.94
2022-08-09T10:44:23.029Z,26.16
2022-08-09T10:47:01.197Z,26.04
2022-08-09T10:49:51.007Z,26.22
2022-08-09T10:52:17.704Z,25.97
2022-08-09T10:54:47.062Z,26.16
2022-08-09T10:57:18.243Z,26.24
2022-08-09T10:59:58.176Z,26.09
2022-08-09T11:03:14.512Z,26.14
2022-08-09T11:05:25.013Z,25.83
2022-08-09T11:07:59.235Z,27.34
2022-08-09T11:10:29.256Z,26.92
2022-08-09T11:12:57.065Z,26.19
2022-08-09T11:15:24.072Z,26.23
2022-08-09T11:17:53.381Z,26.22
2022-08-09T11:20:22.952Z,26.17
2022-08-09T11:22:55.475Z,26.23
2022-08-09T11:25:26.112Z,26.38
2022-08-09T11:28:30.646Z,26.23
2022-08-09T11:30:57.392Z,26.17
2022-08-09T11:33:23.777Z,26.44
2022-08-09T11:35:51.878Z,26.47
2022-08-09T11:38:18.615Z,26.47
2022-08-09T11:40:45.055Z,26.23
2022-08-09T11:43:11.484Z,26.13
2022-08-09T11:45:43.034Z,27.76
2022-08-09T11:48:17.492Z,26.84
2022-08-09T11:50:57.034Z,26.52
2022-08-09T11:53:59.760Z,26.34
2022-08-09T11:56:42.274Z,26.44
2022-08-09T11:59:12.497Z,26.52
2022-08-09T12:02:17.627Z,26.45
2022-08-09T12:04:28.774Z,26.35
2022-08-09T12:07:04.133Z,26.60
2022-08-09T12:09:34.276Z,26.53
2022-08-09T12:12:03.503Z,26.22
2022-08-09T12:14:40.641Z,26.37
2022-08-09T12:17:34.373Z,26.42
2022-08-09T12:20:03.402Z,26.15
2022-08-09T12:22:30.765Z,27.63
2022-08-09T12:24:57.362Z,26.67
2022-08-09T12:29:11.817Z,26.14
2022-08-09T12:30:36.561Z,25.93
2022-08-09T12:32:59.993Z,25.83
2022-08-09T12:35:26.423Z,25.64
2022-08-09T12:37:54.239Z,25.92
2022-08-09T12:40:20.739Z,25.96
2022-08-09T12:42:50.665Z,25.77
2022-08-09T12:45:32.271Z,25.79
2022-08-09T12:48:01.592Z,25.51
2022-08-09T12:50:28.635Z,25.53
2022-08-09T12:53:08.891Z,25.64
2022-08-09T12:56:15.520Z,25.70
2022-08-09T12:58:29.376Z,26.96
2022-08-09T13:00:55.923Z,26.36
2022-08-09T13:03:28.233Z,25.81
2022-08-09T13:06:16.130Z,25.63
2022-08-09T13:08:49.282Z,25.44
2022-08-09T13:11:25.990Z,25.54
2022-08-09T13:14:38.011Z,25.49
2022-08-09T13:16:41.855Z,25.48
2022-08-09T13:19:14.387Z,25.48
2022-08-09T13:22:37.694Z,25.53
2022-08-09T13:24:53.511Z,25.39
2022-08-09T13:27:14.410Z,25.55
2022-08-09T13:30:02.955Z,24.94
2022-08-09T13:32:29.248Z,24.04
2022-08-09T13:34:55.822Z,24.52
2022-08-09T13:37:51.090Z,24.94
2022-08-09T13:41:50.577Z,24.16
2022-08-09T13:42:57.414Z,23.44
2022-08-09T13:45:32.136Z,23.97
2022-08-09T13:48:10.952Z,23.30
2022-08-09T13:50:37.584Z,23.09
2022-08-09T13:53:07.400Z,22.93
2022-08-09T13:55:33.918Z,22.60
2022-08-09T13:58:05.057Z,22.76
2022-08-09T14:00:39.665Z,22.52
2022-08-09T14:04:01.379Z,22.18
2022-08-09T14:06:02.663Z,22.20
2022-08-09T14:08:29.772Z,22.27
2022-08-09T14:10:56.520Z,22.42
2022-08-09T14:14:15.833Z,23.11
2022-08-09T14:16:11.434Z,21.77
2022-08-09T14:18:38.103Z,21.52
2022-08-09T14:21:06.014Z,21.27
2022-08-09T14:23:46.805Z,21.47
2022-08-09T14:26:19.205Z,21.60
2022-08-09T14:28:45.989Z,21.64
2022-08-09T14:31:13.671Z,21.41
2022-08-09T14:33:40.077Z,21.41
2022-08-09T14:36:20.304Z,21.42
2022-08-09T14:38:52.551Z,21.09
2022-08-09T14:41:40.187Z,21.22
2022-08-09T14:44:11.404Z,21.26
2022-08-09T14:46:55.115Z,20.94
2022-08-09T14:49:24.446Z,22.76
2022-08-09T14:51:50.916Z,21.71
2022-08-09T14:54:27.586Z,21.27
2022-08-09T14:56:58.991Z,21.25
2022-08-09T14:59:25.678Z,21.35
2022-08-09T15:01:53.666Z,20.83
2022-08-09T15:04:20.146Z,21.11
2022-08-09T15:06:50.145Z,21.16
2022-08-09T15:10:03.811Z,21.07
2022-08-09T15:12:08.041Z,21.38
2022-08-09T15:14:38.498Z,21.08
2022-08-09T15:17:05.174Z,21.09
2022-08-09T15:19:32.284Z,20.87
2022-08-09T15:22:02.925Z,20.89
2022-08-09T15:24:29.523Z,20.75
2022-08-09T15:26:56.014Z,21.69
2022-08-09T15:30:56.502Z,20.58
2022-08-09T15:32:29.335Z,20.42
2022-08-09T15:34:56.643Z,19.87
2022-08-09T15:37:23.404Z,19.49
2022-08-09T15:39:54.849Z,19.54
2022-08-09T15:42:30.781Z,19.30
2022-08-09T15:44:58.843Z,18.95
2022-08-09T15:47:47.288Z,19.06
2022-08-09T15:50:12.826Z,19.21
2022-08-09T15:52:39.469Z,19.14
2022-08-09T15:55:21.248Z,18.90
2022-08-09T15:57:51.271Z,18.87
2022-08-09T16:00:24.458Z,19.03
2022-08-09T16:02:54.096Z,19.90
2022-08-09T16:05:20.991Z,19.48
2022-08-09T16:07:49.326Z,19.08
2022-08-09T16:10:38.858Z,19.06
2022-08-09T16:13:03.399Z,18.83
2022-08-09T16:16:09.769Z,18.81
2022-08-09T16:18:16.235Z,19.04
2022-08-09T16:20:43.194Z,19.14
2022-08-09T16:23:09.695Z,19.02
2022-08-09T16:25:40.223Z,19.30
2022-08-09T16:28:07.328Z,19.31
2022-08-09T16:30:35.098Z,19.37
2022-08-09T16:33:10.932Z,19.40
2022-08-09T16:35:57.167Z,19.47
2022-08-09T16:38:23.870Z,19.39
2022-08-09T16:40:51.667Z,20.26
2022-08-09T16:43:18.406Z,20.31
2022-08-09T16:45:47.987Z,19.62
2022-08-09T16:48:41.895Z,19.23
2022-08-09T16:51:07.920Z,19.54
2022-08-09T16:53:35.166Z,19.26
2022-08-09T16:56:04.861Z,19.42
2022-08-09T16:58:36.082Z,19.31
2022-08-09T17:01:04.844Z,19.34
2022-08-09T17:03:31.308Z,19.48
2022-08-09T17:06:08.441Z,19.45
2022-08-09T17:09:01.697Z,19.38
2022-08-09T17:11:39.945Z,18.25
2022-08-09T17:14:08.449Z,17.37
2022-08-09T17:16:53.273Z,17.01
2022-08-09T17:19:20.839Z,18.24
2022-08-09T17:21:47.487Z,18.66
2022-08-09T17:24:28.188Z,17.17
2022-08-09T17:26:56.839Z,17.27
2022-08-09T17:29:24.757Z,17.46
2022-08-09T17:31:57.929Z,17.73
2022-08-09T17:35:07.287Z,17.22
2022-08-09T17:37:20.019Z,17.36
2022-08-09T17:39:48.570Z,17.54
2022-08-09T17:42:42.198Z,17.61
2022-08-09T17:45:15.789Z,17.67
2022-08-09T17:47:50.110Z,18.70
2022-08-09T17:50:35.888Z,18.94
2022-08-09T17:53:04.673Z,18.71
2022-08-09T17:55:48.781Z,19.54
2022-08-09T17:58:17.662Z,20.32
2022-08-09T18:00:46.442Z,19.56
2022-08-09T18:03:14.338Z,19.47
2022-08-09T18:05:43.801Z,18.94
2022-08-09T18:08:11.178Z,19.85
2022-08-09T18:10:39.808Z,19.46
2022-08-09T18:13:39.238Z,18.96
2022-08-09T18:16:07.804Z,19.26
2022-08-09T18:18:35.253Z,19.22
2022-08-09T18:21:23.790Z,19.22
2022-08-09T18:24:09.823Z,19.05
2022-08-09T18:26:37.951Z,18.81
2022-08-09T18:30:38.744Z,18.82
2022-08-09T18:31:51.265Z,21.21
2022-08-09T18:34:24.447Z,19.41
2022-08-09T18:36:53.321Z,18.89
2022-08-09T18:39:20.138Z,18.62
2022-08-09T18:41:52.834Z,18.50
2022-08-09T18:44:20.086Z,18.30
2022-08-09T18:47:04.213Z,18.29
2022-08-09T18:49:43.690Z,18.06
2022-08-09T18:52:13.223Z,17.91
2022-08-09T18:54:49.815Z,17.90
2022-08-09T18:57:19.632Z,18.29
2022-08-09T18:59:51.125Z,18.10
2022-08-09T19:02:19.241Z,18.01
2022-08-09T19:04:47.957Z,19.70
2022-08-09T19:07:31.628Z,18.49
2022-08-09T19:10:17.177Z,17.71
2022-08-09T19:12:50.708Z,17.64
2022-08-09T19:15:26.508Z,17.56
2022-08-09T19:17:56.244Z,17.72
2022-08-09T19:20:23.185Z,17.73
2022-08-09T19:22:54.440Z,17.90
2022-08-09T19:25:41.269Z,17.67
2022-08-09T19:28:09.180Z,17.98
2022-08-09T19:30:40.012Z,17.86
2022-08-09T19:33:15.743Z,17.86
2022-08-09T19:35:57.922Z,17.81
2022-08-09T19:38:25.225Z,19.54
2022-08-09T19:40:51.719Z,18.54
2022-08-09T19:44:01.722Z,17.71
2022-08-09T19:46:04.551Z,17.82
2022-08-09T19:49:00.927Z,17.58
2022-08-09T19:51:17.647Z,17.73
2022-08-09T19:53:49.644Z,17.55
2022-08-09T19:56:16.057Z,17.82
2022-08-09T19:58:42.473Z,17.66
2022-08-09T20:01:23.030Z,17.89
2022-08-09T20:04:18.172Z,17.82
2022-08-09T20:06:36.386Z,17.66
2022-08-09T20:09:04.674Z,19.61
2022-08-09T20:11:43.432Z,21.57
2022-08-09T20:14:17.555Z,20.99
2022-08-09T20:16:53.621Z,21.05
2022-08-09T20:19:47.518Z,21.32
2022-08-09T20:22:09.849Z,21.41
2022-08-09T20:24:36.604Z,21.69
2022-08-09T20:27:08.561Z,21.80
2022-08-09T20:29:37.585Z,21.62
2022-08-09T20:32:30.923Z,21.96
2022-08-09T20:34:51.162Z,22.04
2022-08-09T20:37:21.541Z,21.89
2022-08-09T20:40:17.642Z,22.23
2022-08-09T20:42:35.659Z,22.10
2022-08-09T20:46:01.507Z,23.10
2022-08-09T20:47:50.907Z,22.49
2022-08-09T20:50:46.386Z,22.11
2022-08-09T20:53:03.714Z,22.40
2022-08-09T20:55:30.119Z,22.13
2022-08-09T20:58:20.593Z,22.13
2022-08-09T21:00:49.594Z,22.20
2022-08-09T21:03:39.414Z,22.50
2022-08-09T21:06:21.053Z,22.61
2022-08-09T21:08:48.935Z,22.69
2022-08-09T21:14:05.806Z,22.96
2022-08-09T21:16:35.998Z,23.52
2022-08-09T21:20:19.345Z,22.73
2022-08-09T21:21:56.371Z,22.89
2022-08-09T21:24:28.805Z,22.70
2022-08-09T21:26:59.171Z,22.99
2022-08-09T21:29:25.597Z,22.65
2022-08-09T21:31:52.028Z,23.00
2022-08-09T21:34:28.658Z,22.88
2022-08-09T21:36:56.577Z,23.00
2022-08-09T21:39:28.325Z,23.37
2022-08-09T21:42:10.485Z,23.15
2022-08-09T21:44:37.881Z,23.21
2022-08-09T21:47:04.447Z,24.27
2022-08-09T21:49:39.500Z,23.16
2022-08-09T21:52:07.062Z,23.07
2022-08-09T21:54:41.593Z,23.13
2022-08-09T21:57:25.483Z,23.34
2022-08-09T21:59:59.079Z,23.43
2022-08-09T22:02:36.261Z,23.35
2022-08-09T22:05:16.720Z,23.26
2022-08-09T22:07:52.045Z,23.13
2022-08-09T22:10:23.205Z,23.26
2022-08-09T22:12:50.648Z,23.24
2022-08-09T22:15:18.535Z,24.41
2022-08-09T22:17:47.375Z,23.96
2022-08-09T22:20:16.831Z,23.54
2022-08-09T22:22:48.607Z,23.58
2022-08-09T22:26:08.075Z,23.81
2022-08-09T22:28:01.706Z,23.46
2022-08-09T22:30:33.677Z,23.59
2022-08-09T22:33:00.107Z,23.66
2022-08-09T22:36:00.234Z,23.36
2022-08-09T22:38:14.778Z,23.51
2022-08-09T22:40:49.138Z,23.69
2022-08-09T22:44:02.425Z,23.65
2022-08-09T22:48:10.961Z,24.41
2022-08-09T22:49:01.961Z,23.46
2022-08-09T22:51:38.362Z,23.51
2022-08-09T22:54:08.274Z,23.54
2022-08-09T22:56:37.418Z,23.69
2022-08-09T22:59:57.273Z,23.54
2022-08-09T23:01:54.261Z,23.77
2022-08-09T23:04:20.767Z,23.63
2022-08-09T23:06:47.162Z,23.62
2022-08-09T23:09:15.259Z,23.69
2022-08-09T23:11:41.642Z,23.44
2022-08-09T23:14:09.877Z,25.08
2022-08-09T23:16:36.824Z,23.70
2022-08-09T23:19:03.232Z,23.54
2022-08-09T23:21:33.712Z,23.81
2022-08-09T23:24:05.083Z,23.74
2022-08-09T23:26:32.195Z,23.68
2022-08-09T23:28:58.602Z,23.76
2022-08-09T23:31:25.091Z,23.87
2022-08-09T23:33:51.463Z,23.86
2022-08-09T23:36:17.841Z,23.81
2022-08-09T23:38:49.026Z,24.12
2022-08-09T23:41:27.845Z,24.55
2022-08-09T23:43:56.429Z,24.62
2022-08-09T23:46:22.827Z,23.87
2022-08-09T23:48:49.216Z,23.90
2022-08-09T23:51:15.652Z,24.12
2022-08-09T23:53:42.036Z,23.88
2022-08-09T23:56:08.412Z,24.06
2022-08-09T23:58:35.562Z,23.78
